createdAt,value
2023-02-13T00:01:55.548Z,15.65
2023-02-13T00:04:22.258Z,15.35
2023-02-13T00:06:49.002Z,15.88
2023-02-13T00:09:15.697Z,16.27
2023-02-13T00:11:42.308Z,15.35
2023-02-13T00:14:09.019Z,15.65
2023-02-13T00:16:35.966Z,14.27
2023-02-13T00:19:02.717Z,14.30
2023-02-13T00:21:29.385Z,15.77
2023-02-13T00:23:55.997Z,14.48
2023-02-13T00:26:22.730Z,15.00
2023-02-13T00:28:49.429Z,16.27
2023-02-13T00:31:18.557Z,13.73
2023-02-13T00:33:45.415Z,13.82
2023-02-13T00:36:15.311Z,13.50
2023-02-13T00:38:42.854Z,13.38
2023-02-13T00:41:10.926Z,13.00
2023-02-13T00:43:37.985Z,14.18
2023-02-13T00:46:04.860Z,11.77
2023-02-13T00:48:33.631Z,12.52
2023-02-13T00:51:00.863Z,12.23
2023-02-13T00:53:27.919Z,12.68
2023-02-13T00:55:54.518Z,11.68
2023-02-13T00:58:21.315Z,12.15
2023-02-13T01:00:47.961Z,11.43
2023-02-13T01:03:15.959Z,12.00
2023-02-13T01:05:43.481Z,10.23
2023-02-13T01:08:10.935Z,11.43
2023-02-13T01:10:39.188Z,11.68
2023-02-13T01:13:06.548Z,11.25
2023-02-13T01:15:33.823Z,10.48
2023-02-13T01:18:01.075Z,11.23
2023-02-13T01:20:28.844Z,10.32
2023-02-13T01:22:55.677Z,10.38
2023-02-13T01:25:23.034Z,11.35
2023-02-13T01:27:49.836Z,10.77
2023-02-13T01:30:18.209Z,11.57
2023-02-13T01:32:47.776Z,10.88
2023-02-13T01:35:16.048Z,11.02
2023-02-13T01:37:43.300Z,10.73
2023-02-13T01:40:13.532Z,10.95
2023-02-13T01:42:40.431Z,12.93
2023-02-13T01:45:19.771Z,10.10
2023-02-13T01:47:57.342Z,10.65
2023-02-13T01:50:35.102Z,11.25
2023-02-13T01:53:27.195Z,12.32
2023-02-13T01:56:00.218Z,10.45
2023-02-13T01:58:33.203Z,10.55
2023-02-13T02:01:01.077Z,11.52
2023-02-13T02:03:36.823Z,12.35
2023-02-13T02:06:04.826Z,11.73
2023-02-13T02:08:32.052Z,12.00
2023-02-13T02:11:06.921Z,12.85
2023-02-13T02:13:33.609Z,12.45
2023-02-13T02:16:00.619Z,12.85
2023-02-13T02:18:27.394Z,11.95
2023-02-13T02:21:22.509Z,13.05
2023-02-13T02:24:23.037Z,12.90
2023-02-13T02:27:09.137Z,12.43
2023-02-13T02:30:00.548Z,11.45
2023-02-13T02:32:31.701Z,11.40
2023-02-13T02:35:13.090Z,12.38
2023-02-13T02:37:51.612Z,11.85
2023-02-13T02:40:27.777Z,11.95
2023-02-13T02:43:06.477Z,12.45
2023-02-13T02:45:55.640Z,12.67
2023-02-13T02:49:01.474Z,13.50
2023-02-13T02:51:39.198Z,13.77
2023-02-13T02:54:41.007Z,13.32
2023-02-13T02:57:14.770Z,12.60
2023-02-13T03:00:01.991Z,12.02
2023-02-13T03:02:49.211Z,12.40
2023-02-13T03:05:48.368Z,12.13
2023-02-13T03:08:35.943Z,12.55
2023-02-13T03:11:31.959Z,12.13
2023-02-13T03:14:01.446Z,11.15
2023-02-13T03:16:46.836Z,13.43
2023-02-13T03:19:44.090Z,11.90
2023-02-13T03:22:23.738Z,11.68
2023-02-13T03:28:01.391Z,11.93
2023-02-13T03:30:38.894Z,12.02
2023-02-13T03:33:36.743Z,11.45
2023-02-13T03:37:00.116Z,13.63
2023-02-13T03:39:46.812Z,12.93
2023-02-13T03:42:28.557Z,13.18
2023-02-13T03:45:20.518Z,13.10
2023-02-13T03:47:49.730Z,11.43
2023-02-13T03:50:17.881Z,12.68
2023-02-13T03:53:00.123Z,13.80
2023-02-13T03:55:50.882Z,13.60
2023-02-13T03:58:40.602Z,14.45
2023-02-13T04:01:09.839Z,13.88
2023-02-13T04:04:17.886Z,13.23
2023-02-13T04:06:52.460Z,14.02
2023-02-13T04:09:19.780Z,13.88
2023-02-13T04:12:00.143Z,13.80
2023-02-13T04:14:42.610Z,14.10
2023-02-13T04:17:17.500Z,13.68
2023-02-13T04:19:44.303Z,14.40
2023-02-13T04:22:12.318Z,13.30
2023-02-13T04:24:38.962Z,13.38
2023-02-13T04:27:05.678Z,14.55
2023-02-13T04:29:32.273Z,13.30
2023-02-13T04:31:58.987Z,13.25
2023-02-13T04:34:25.682Z,13.13
2023-02-13T04:36:52.271Z,12.48
2023-02-13T04:39:19.167Z,13.60
2023-02-13T04:41:45.802Z,11.50
2023-02-13T04:44:12.442Z,12.52
2023-02-13T04:46:39.078Z,11.02
2023-02-13T04:49:05.918Z,11.50
2023-02-13T04:51:32.555Z,11.57
2023-02-13T04:53:59.195Z,11.55
2023-02-13T04:56:25.826Z,13.60
2023-02-13T04:58:52.679Z,12.35
2023-02-13T05:01:19.565Z,12.35
2023-02-13T05:03:46.226Z,12.07
2023-02-13T05:06:13.006Z,11.68
2023-02-13T05:08:39.639Z,10.70
2023-02-13T05:11:06.767Z,12.57
2023-02-13T05:13:33.955Z,11.73
2023-02-13T05:16:00.712Z,11.77
2023-02-13T05:18:27.435Z,13.20
2023-02-13T05:21:12.494Z,11.82
2023-02-13T05:23:39.091Z,13.90
2023-02-13T05:26:05.770Z,14.07
2023-02-13T05:28:51.277Z,13.02
2023-02-13T05:31:18.152Z,11.80
2023-02-13T05:33:44.866Z,13.00
2023-02-13T05:36:11.460Z,14.43
2023-02-13T05:38:38.130Z,15.90
2023-02-13T05:41:04.798Z,18.08
2023-02-13T05:43:31.406Z,13.95
2023-02-13T05:46:06.474Z,15.80
2023-02-13T05:48:33.600Z,16.08
2023-02-13T05:51:00.549Z,17.58
2023-02-13T05:53:27.650Z,13.88
2023-02-13T05:55:54.232Z,15.02
2023-02-13T05:58:21.565Z,14.43
2023-02-13T06:00:48.513Z,14.27
2023-02-13T06:03:15.451Z,13.93
2023-02-13T06:05:42.027Z,17.02
2023-02-13T06:08:08.728Z,15.65
2023-02-13T06:10:35.299Z,16.27
2023-02-13T06:13:01.908Z,15.98
2023-02-13T06:15:29.359Z,15.90
2023-02-13T06:17:56.140Z,15.82
2023-02-13T06:20:22.788Z,17.45
2023-02-13T06:22:52.938Z,15.35
2023-02-13T06:25:20.045Z,15.75
2023-02-13T06:27:46.861Z,15.60
2023-02-13T06:30:14.656Z,15.95
2023-02-13T06:32:41.586Z,15.80
2023-02-13T06:35:08.831Z,13.55
2023-02-13T06:37:36.033Z,15.10
2023-02-13T06:40:02.981Z,15.05
2023-02-13T06:42:29.589Z,15.70
2023-02-13T06:44:56.319Z,15.88
2023-02-13T06:47:22.931Z,16.33
2023-02-13T06:49:49.532Z,16.08
2023-02-13T06:52:16.401Z,15.73
2023-02-13T06:54:47.734Z,16.45
2023-02-13T06:57:15.251Z,14.52
2023-02-13T06:59:42.156Z,17.02
2023-02-13T07:02:12.747Z,15.18
2023-02-13T07:04:40.077Z,14.60
2023-02-13T07:07:06.676Z,13.75
2023-02-13T07:09:33.341Z,17.88
2023-02-13T07:12:03.792Z,15.85
2023-02-13T07:14:30.489Z,16.00
2023-02-13T07:16:57.960Z,14.85
2023-02-13T07:19:24.798Z,14.77
2023-02-13T07:21:51.409Z,14.02
2023-02-13T07:24:18.020Z,13.90
2023-02-13T07:26:44.743Z,15.23
2023-02-13T07:29:12.386Z,13.25
2023-02-13T07:31:40.114Z,13.50
2023-02-13T07:34:07.231Z,12.48
2023-02-13T07:36:34.447Z,15.13
2023-02-13T07:39:01.109Z,13.07
2023-02-13T07:41:27.771Z,12.82
2023-02-13T07:43:54.785Z,12.05
2023-02-13T07:46:21.779Z,11.30
2023-02-13T07:48:48.580Z,11.85
2023-02-13T07:51:16.347Z,11.35
2023-02-13T07:53:43.384Z,11.88
2023-02-13T07:56:10.930Z,10.18
2023-02-13T07:58:40.472Z,10.45
2023-02-13T08:01:12.741Z,10.23
2023-02-13T08:03:39.705Z,10.32
2023-02-13T08:06:07.104Z,10.55
2023-02-13T08:08:34.820Z,11.55
2023-02-13T08:11:47.282Z,10.82
2023-02-13T08:14:13.932Z,10.77
2023-02-13T08:16:40.562Z,12.00
2023-02-13T08:19:07.181Z,11.10
2023-02-13T08:21:35.200Z,11.27
2023-02-13T08:24:01.915Z,10.90
2023-02-13T08:26:31.538Z,11.07
2023-02-13T08:31:25.416Z,9.95
2023-02-13T08:33:52.253Z,10.20
2023-02-13T08:36:19.902Z,9.57
2023-02-13T08:38:47.463Z,10.95
2023-02-13T08:41:14.795Z,10.63
2023-02-13T08:43:41.458Z,11.88
2023-02-13T08:46:08.136Z,11.57
2023-02-13T08:48:34.820Z,10.70
2023-02-13T08:51:06.795Z,12.18
2023-02-13T08:53:34.407Z,13.13
2023-02-13T08:56:01.169Z,11.52
2023-02-13T08:58:28.262Z,10.95
2023-02-13T09:00:54.925Z,11.68
2023-02-13T09:03:21.607Z,12.45
2023-02-13T09:05:48.311Z,12.90
2023-02-13T09:08:16.612Z,13.05
2023-02-13T09:10:44.421Z,9.85
2023-02-13T09:13:11.322Z,10.05
2023-02-13T09:15:41.651Z,10.50
2023-02-13T09:18:08.481Z,9.90
2023-02-13T09:20:36.245Z,8.48
2023-02-13T09:23:03.197Z,9.63
2023-02-13T09:25:29.965Z,9.25
2023-02-13T09:27:56.798Z,8.98
2023-02-13T09:30:23.874Z,10.50
2023-02-13T09:32:52.195Z,10.27
2023-02-13T09:35:19.936Z,9.82
2023-02-13T09:37:46.642Z,9.82
2023-02-13T09:40:29.336Z,11.23
2023-02-13T09:43:11.904Z,12.10
2023-02-13T09:45:39.166Z,11.82
2023-02-13T09:48:06.457Z,10.73
2023-02-13T09:50:35.094Z,10.45
2023-02-13T09:53:04.160Z,12.38
2023-02-13T09:55:47.311Z,12.15
2023-02-13T09:58:27.384Z,12.40
2023-02-13T10:00:59.203Z,11.13
2023-02-13T10:03:39.578Z,10.95
2023-02-13T10:06:49.893Z,11.82
2023-02-13T10:09:54.581Z,11.38
2023-02-13T10:12:45.914Z,10.70
2023-02-13T10:15:25.872Z,10.68
2023-02-13T10:18:15.316Z,11.18
2023-02-13T10:20:54.536Z,13.57
2023-02-13T10:23:30.092Z,13.07
2023-02-13T10:26:01.152Z,11.82
2023-02-13T10:28:37.340Z,13.38
2023-02-13T10:31:17.984Z,13.27
2023-02-13T10:33:55.885Z,14.25
2023-02-13T10:36:27.632Z,12.25
2023-02-13T10:39:04.758Z,12.60
2023-02-13T10:41:57.887Z,13.77
2023-02-13T10:44:41.362Z,13.88
2023-02-13T10:47:11.009Z,15.73
2023-02-13T10:52:30.194Z,15.15
2023-02-13T10:55:13.499Z,15.38
2023-02-13T10:57:46.106Z,14.77
2023-02-13T11:00:31.981Z,15.52
2023-02-13T11:02:59.855Z,14.57
2023-02-13T11:05:38.014Z,15.23
2023-02-13T11:08:17.451Z,16.25
2023-02-13T11:10:44.105Z,15.02
2023-02-13T11:13:25.118Z,14.85
2023-02-13T11:16:04.296Z,16.05
2023-02-13T11:18:38.142Z,15.93
2023-02-13T11:21:09.339Z,15.80
2023-02-13T11:23:45.847Z,13.73
2023-02-13T11:26:29.292Z,14.82
2023-02-13T11:29:01.798Z,14.32
2023-02-13T11:31:37.750Z,13.38
2023-02-13T11:34:22.601Z,13.45
2023-02-13T11:36:53.849Z,15.63
2023-02-13T11:39:27.033Z,14.45
2023-02-13T11:41:53.660Z,13.65
2023-02-13T11:44:30.066Z,12.63
2023-02-13T11:46:59.910Z,13.85
2023-02-13T11:49:29.512Z,13.05
2023-02-13T11:54:43.121Z,13.55
2023-02-13T11:57:28.261Z,13.55
2023-02-13T11:59:55.031Z,11.80
2023-02-13T12:02:24.594Z,13.90
2023-02-13T12:07:25.288Z,13.73
2023-02-13T12:10:18.929Z,12.30
2023-02-13T12:12:59.247Z,13.63
2023-02-13T12:15:29.629Z,12.82
2023-02-13T12:18:25.442Z,12.88
2023-02-13T12:21:04.155Z,11.07
2023-02-13T12:23:55.618Z,12.05
2023-02-13T12:26:42.813Z,11.77
2023-02-13T12:29:41.022Z,10.63
2023-02-13T12:32:19.457Z,11.95
2023-02-13T12:34:58.121Z,10.85
2023-02-13T12:37:43.230Z,12.07
2023-02-13T12:40:24.976Z,10.15
2023-02-13T12:43:31.997Z,10.98
2023-02-13T12:46:10.600Z,10.25
2023-02-13T12:49:05.507Z,10.10
2023-02-13T12:51:49.647Z,11.02
2023-02-13T12:54:19.265Z,9.98
2023-02-13T12:59:43.468Z,9.65
2023-02-13T13:02:23.971Z,9.55
2023-02-13T13:05:27.425Z,10.43
2023-02-13T13:08:12.110Z,9.30
2023-02-13T13:11:15.402Z,9.85
2023-02-13T13:13:44.974Z,9.20
2023-02-13T13:17:04.293Z,11.25
2023-02-13T13:19:55.681Z,9.48
2023-02-13T13:22:32.946Z,9.75
2023-02-13T13:25:16.317Z,10.02
2023-02-13T13:27:46.203Z,8.73
2023-02-13T13:30:15.810Z,8.88
2023-02-13T13:32:44.620Z,8.85
2023-02-13T13:35:20.180Z,8.77
2023-02-13T13:38:14.924Z,9.52
2023-02-13T13:41:09.273Z,7.63
2023-02-13T13:43:50.971Z,8.48
2023-02-13T13:46:56.868Z,7.03
2023-02-13T13:49:44.951Z,7.30
2023-02-13T13:52:34.204Z,9.18
2023-02-13T13:55:04.345Z,8.25
2023-02-13T13:57:33.888Z,8.13
2023-02-13T14:00:14.149Z,8.40
2023-02-13T14:03:21.268Z,8.75
2023-02-13T14:06:06.976Z,9.95
2023-02-13T14:08:39.724Z,9.85
2023-02-13T14:11:25.367Z,9.65
2023-02-13T14:13:52.593Z,9.43
2023-02-13T14:16:38.042Z,9.82
2023-02-13T14:19:06.061Z,9.23
2023-02-13T14:21:32.814Z,9.45
2023-02-13T14:24:03.888Z,9.48
2023-02-13T14:26:33.943Z,8.52
2023-02-13T14:29:25.681Z,9.35
2023-02-13T14:32:18.075Z,10.23
2023-02-13T14:34:53.534Z,9.70
2023-02-13T14:37:32.282Z,8.48
2023-02-13T14:40:20.150Z,8.57
2023-02-13T14:42:53.764Z,8.32
2023-02-13T14:45:28.319Z,8.68
2023-02-13T14:47:57.341Z,9.25
2023-02-13T14:50:31.594Z,9.43
2023-02-13T14:53:04.437Z,9.30
2023-02-13T14:55:35.482Z,8.32
2023-02-13T14:58:20.292Z,7.70
2023-02-13T15:01:11.556Z,8.02
2023-02-13T15:03:49.041Z,6.88
2023-02-13T15:06:39.016Z,6.75
2023-02-13T15:09:18.075Z,6.38
2023-02-13T15:11:45.320Z,6.10
2023-02-13T15:14:19.125Z,6.25
2023-02-13T15:16:50.194Z,5.28
2023-02-13T15:19:19.513Z,5.30
2023-02-13T15:22:01.878Z,5.25
2023-02-13T15:24:36.739Z,5.70
2023-02-13T15:27:06.440Z,5.57
2023-02-13T15:32:20.741Z,5.70
2023-02-13T15:34:48.849Z,5.47
2023-02-13T15:37:23.698Z,4.93
2023-02-13T15:39:50.644Z,4.70
2023-02-13T15:42:17.287Z,4.85
2023-02-13T15:44:47.932Z,4.75
2023-02-13T15:47:28.086Z,4.72
2023-02-13T15:49:55.313Z,4.50
2023-02-13T15:52:26.949Z,5.45
2023-02-13T15:54:55.765Z,4.53
2023-02-13T15:57:24.065Z,5.10
2023-02-13T15:59:52.208Z,4.20
2023-02-13T16:02:21.319Z,4.43
2023-02-13T16:04:51.350Z,4.78
2023-02-13T16:07:18.577Z,5.53
2023-02-13T16:09:45.278Z,4.88
2023-02-13T16:12:25.388Z,5.03
2023-02-13T16:14:59.900Z,6.05
2023-02-13T16:17:31.547Z,6.22
2023-02-13T16:20:02.615Z,4.97
2023-02-13T16:22:39.475Z,4.03
2023-02-13T16:25:12.136Z,4.25
2023-02-13T16:27:48.210Z,5.13
2023-02-13T16:30:37.952Z,4.90
2023-02-13T16:33:14.484Z,4.45
2023-02-13T16:35:45.270Z,3.83
2023-02-13T16:38:25.644Z,3.95
2023-02-13T16:40:52.628Z,3.53
2023-02-13T16:43:39.535Z,3.78
2023-02-13T16:46:15.165Z,3.25
2023-02-13T16:48:43.943Z,3.33
2023-02-13T16:51:11.357Z,4.10
2023-02-13T16:53:39.392Z,3.60
2023-02-13T16:56:08.361Z,3.45
2023-02-13T16:58:35.026Z,3.92
2023-02-13T17:01:04.687Z,3.80
2023-02-13T17:06:04.276Z,3.85
2023-02-13T17:08:31.827Z,3.35
2023-02-13T17:11:04.701Z,3.38
2023-02-13T17:13:31.411Z,4.18
2023-02-13T17:15:59.319Z,3.70
2023-02-13T17:18:27.284Z,3.35
2023-02-13T17:20:54.752Z,4.35
2023-02-13T17:23:24.441Z,3.85
2023-02-13T17:28:27.677Z,4.10
2023-02-13T17:30:57.152Z,4.47
2023-02-13T17:35:51.660Z,16.70
2023-02-13T17:38:18.599Z,5.50
2023-02-13T17:40:46.171Z,5.55
2023-02-13T17:43:14.333Z,5.32
2023-02-13T17:45:41.257Z,4.88
2023-02-13T17:48:08.196Z,5.90
2023-02-13T17:50:36.224Z,5.35
2023-02-13T17:53:05.785Z,5.13
2023-02-13T17:55:33.480Z,6.75
2023-02-13T17:58:00.667Z,5.43
2023-02-13T18:00:30.938Z,5.35
2023-02-13T18:02:59.422Z,5.72
2023-02-13T18:05:27.561Z,10.00
2023-02-13T18:07:54.580Z,4.55
2023-02-13T18:10:23.997Z,5.22
2023-02-13T18:12:52.037Z,5.65
2023-02-13T18:15:19.571Z,6.82
2023-02-13T18:17:46.684Z,69.35
2023-02-13T18:20:19.040Z,12.07
2023-02-13T18:22:46.158Z,7.85
2023-02-13T18:25:13.451Z,8.57
2023-02-13T18:27:40.165Z,5.85
2023-02-13T18:30:07.960Z,5.68
2023-02-13T18:32:34.922Z,6.32
2023-02-13T18:35:02.639Z,5.53
2023-02-13T18:37:30.017Z,5.30
2023-02-13T18:39:57.179Z,5.05
2023-02-13T18:42:24.050Z,6.72
2023-02-13T18:44:50.958Z,6.88
2023-02-13T18:47:18.164Z,7.45
2023-02-13T18:49:47.685Z,7.97
2023-02-13T18:52:14.664Z,6.90
2023-02-13T18:54:41.223Z,6.38
2023-02-13T18:57:07.923Z,6.93
2023-02-13T18:59:34.591Z,6.75
2023-02-13T19:02:03.194Z,6.80
2023-02-13T19:04:30.870Z,6.80
2023-02-13T19:06:57.647Z,6.05
2023-02-13T19:09:24.351Z,6.85
2023-02-13T19:11:51.612Z,6.20
2023-02-13T19:14:18.324Z,7.25
2023-02-13T19:16:44.984Z,6.07
2023-02-13T19:19:11.727Z,6.45
2023-02-13T19:21:39.693Z,6.05
2023-02-13T19:24:08.807Z,9.32
2023-02-13T19:26:36.072Z,6.97
2023-02-13T19:29:03.317Z,6.82
2023-02-13T19:31:32.002Z,7.72
2023-02-13T19:34:00.515Z,7.25
2023-02-13T19:36:29.176Z,7.53
2023-02-13T19:38:58.273Z,8.02
2023-02-13T19:41:25.460Z,6.95
2023-02-13T19:43:55.625Z,6.70
2023-02-13T19:46:33.079Z,6.68
2023-02-13T19:49:00.140Z,8.27
2023-02-13T19:51:29.791Z,7.85
2023-02-13T19:56:26.298Z,18.33
2023-02-13T20:01:22.541Z,9.15
2023-02-13T20:03:50.120Z,8.02
2023-02-13T20:06:19.795Z,8.60
2023-02-13T20:11:15.516Z,8.40
2023-02-13T20:13:42.348Z,8.63
2023-02-13T20:16:11.932Z,11.13
2023-02-13T20:21:10.424Z,9.73
2023-02-13T20:23:37.430Z,8.80
2023-02-13T20:26:10.818Z,11.10
2023-02-13T20:28:38.038Z,9.75
2023-02-13T20:31:15.402Z,10.73
2023-02-13T20:33:43.997Z,9.50
2023-02-13T20:36:22.819Z,10.52
2023-02-13T20:38:51.922Z,9.48
2023-02-13T20:41:21.413Z,10.80
2023-02-13T20:43:48.376Z,11.40
2023-02-13T20:46:18.047Z,11.60
2023-02-13T20:51:14.161Z,10.65
2023-02-13T20:53:42.574Z,10.82
2023-02-13T20:56:13.264Z,12.20
2023-02-13T20:58:41.352Z,11.02
2023-02-13T21:01:17.401Z,13.98
2023-02-13T21:03:45.056Z,15.73
2023-02-13T21:06:11.874Z,14.32
2023-02-13T21:08:38.492Z,12.43
2023-02-13T21:11:07.497Z,13.85
2023-02-13T21:13:35.029Z,14.02
2023-02-13T21:16:13.601Z,13.50
2023-02-13T21:18:40.935Z,13.40
2023-02-13T21:21:08.910Z,13.07
2023-02-13T21:23:36.140Z,14.27
2023-02-13T21:26:11.715Z,12.98
2023-02-13T21:28:39.051Z,20.85
2023-02-13T21:31:11.764Z,13.65
2023-02-13T21:33:38.471Z,12.95
2023-02-13T21:36:08.405Z,17.08
2023-02-13T21:38:36.448Z,16.98
2023-02-13T21:41:15.098Z,17.45
2023-02-13T21:43:46.493Z,22.48
2023-02-13T21:46:14.911Z,13.07
2023-02-13T21:48:42.552Z,14.23
2023-02-13T21:51:14.694Z,14.10
2023-02-13T21:53:41.902Z,19.80
2023-02-13T21:56:12.222Z,23.15
2023-02-13T21:58:40.308Z,16.20
2023-02-13T22:01:23.849Z,14.90
2023-02-13T22:03:52.938Z,12.18
2023-02-13T22:06:21.057Z,12.82
2023-02-13T22:08:48.389Z,13.18
2023-02-13T22:11:17.664Z,12.35
2023-02-13T22:13:44.313Z,11.48
2023-02-13T22:16:15.188Z,12.10
2023-02-13T22:18:43.832Z,24.13
2023-02-13T22:21:15.802Z,17.25
2023-02-13T22:23:44.275Z,15.48
2023-02-13T22:26:38.356Z,17.05
2023-02-13T22:29:10.320Z,16.20
2023-02-13T22:31:37.484Z,16.95
2023-02-13T22:34:05.819Z,14.40
2023-02-13T22:36:34.363Z,12.38
2023-02-13T22:39:01.110Z,12.13
2023-02-13T22:41:28.380Z,12.20
2023-02-13T22:43:55.082Z,13.48
2023-02-13T22:46:30.812Z,12.13
2023-02-13T22:48:58.793Z,11.80
2023-02-13T22:51:33.948Z,12.48
2023-02-13T22:54:01.263Z,13.13
2023-02-13T22:56:29.539Z,13.23
2023-02-13T22:58:56.615Z,12.30
2023-02-13T23:01:25.506Z,13.15
2023-02-13T23:03:52.389Z,14.38
2023-02-13T23:06:19.788Z,16.58
2023-02-13T23:08:49.008Z,16.50
2023-02-13T23:11:35.865Z,16.08
2023-02-13T23:14:04.142Z,16.23
2023-02-13T23:16:50.898Z,20.20
2023-02-13T23:19:17.620Z,14.27
2023-02-13T23:21:44.258Z,16.20
2023-02-13T23:24:11.233Z,20.45
2023-02-13T23:26:37.876Z,13.43
2023-02-13T23:29:04.547Z,15.88
2023-02-13T23:31:31.268Z,14.63
2023-02-13T23:33:58.065Z,16.15
2023-02-13T23:36:24.696Z,21.20
2023-02-13T23:38:51.336Z,21.48
2023-02-13T23:41:18.296Z,30.73
2023-02-13T23:43:44.866Z,21.77
2023-02-13T23:46:11.487Z,18.98
2023-02-13T23:48:38.106Z,20.20
2023-02-13T23:51:04.848Z,21.98
2023-02-13T23:53:35.338Z,23.15
2023-02-13T23:56:02.204Z,22.00
2023-02-13T23:58:28.847Z,20.83
